Time,TemperatureF,DewpointF,PressureIn,WindDirection,WindDirectionDegrees,WindSpeedMPH,WindSpeedGustMPH,Humidity,HourlyPrecipIn,Conditions,Clouds,dailyrainin,SoftwareType,DateUTC
2013-07-14 00:04:00,60.1,50.4,29.92,West,270,0.2,0.7,70,0.00,,,0.00,WUHU216HW,2013-07-14 07:04:00,
2013-07-14 00:10:00,60.1,50.4,29.92,WNW,293,0.4,0.7,70,0.00,,,0.00,WUHU216HW,2013-07-14 07:10:00,
2013-07-14 00:15:00,59.8,50.0,29.92,West,270,0.0,0.4,70,0.00,,,0.00,WUHU216HW,2013-07-14 07:15:00,
2013-07-14 00:20:00,59.8,50.0,29.92,West,270,0.0,0.0,70,0.00,,,0.00,WUHU216HW,2013-07-14 07:20:00,
2013-07-14 00:25:00,59.4,49.7,29.92,West,270,0.0,0.0,70,0.00,,,0.00,WUHU216HW,2013-07-14 07:25:00,
2013-07-14 00:30:00,59.4,50.0,29.92,West,270,0.0,0.0,71,0.00,,,0.00,WUHU216HW,2013-07-14 07:30:00,
2013-07-14 00:35:00,59.2,49.9,29.91,West,270,0.0,0.0,71,0.00,,,0.00,WUHU216HW,2013-07-14 07:35:00,
2013-07-14 00:40:00,59.0,49.7,29.92,West,270,0.0,0.0,71,0.00,,,0.00,WUHU216HW,2013-07-14 07:40:00,
2013-07-14 00:45:00,58.9,49.5,29.91,West,270,0.0,0.0,71,0.00,,,0.00,WUHU216HW,2013-07-14 07:45:00,
2013-07-14 00:50:00,58.7,49.7,29.91,West,270,0.0,0.0,72,0.00,,,0.00,WUHU216HW,2013-07-14 07:50:00,
2013-07-14 00:55:00,58.7,49.7,29.91,West,270,0.0,0.0,72,0.00,,,0.00,WUHU216HW,2013-07-14 07:55:00,
2013-07-14 01:00:00,58.5,49.9,29.91,West,270,0.0,0.0,73,0.00,,,0.00,WUHU216HW,2013-07-14 08:00:00,
2013-07-14 01:05:00,58.3,49.7,29.91,West,270,0.0,0.0,73,0.00,,,0.00,WUHU216HW,2013-07-14 08:05:00,
2013-07-14 01:10:00,58.1,49.5,29.91,West,270,0.0,0.0,73,0.00,,,0.00,WUHU216HW,2013-07-14 08:10:00,
2013-07-14 01:16:00,58.0,49.3,29.91,West,270,0.0,0.0,73,0.00,,,0.00,WUHU216HW,2013-07-14 08:16:00,
2013-07-14 01:21:00,58.0,49.3,29.91,West,270,0.0,0.0,73,0.00,,,0.00,WUHU216HW,2013-07-14 08:21:00,
2013-07-14 01:26:00,57.8,49.5,29.91,West,270,0.0,0.0,74,0.00,,,0.00,WUHU216HW,2013-07-14 08:26:00,
2013-07-14 01:31:00,57.6,49.3,29.91,WNW,293,0.0,0.0,74,0.00,,,0.00,WUHU216HW,2013-07-14 08:31:00,
2013-07-14 01:36:00,57.6,49.7,29.91,WNW,293,0.0,0.2,75,0.00,,,0.00,WUHU216HW,2013-07-14 08:36:00,
2013-07-14 01:41:00,57.4,49.5,29.91,WNW,293,0.0,0.2,75,0.00,,,0.00,WUHU216HW,2013-07-14 08:41:00,
2013-07-14 01:46:00,57.4,49.5,29.91,WNW,293,0.0,0.0,75,0.00,,,0.00,WUHU216HW,2013-07-14 08:46:00,
2013-07-14 01:51:00,57.2,49.3,29.91,WNW,293,0.0,0.0,75,0.00,,,0.00,WUHU216HW,2013-07-14 08:51:00,
2013-07-14 01:56:00,57.2,49.3,29.91,WNW,293,0.0,0.0,75,0.00,,,0.00,WUHU216HW,2013-07-14 08:56:00,
2013-07-14 02:01:00,57.1,49.1,29.91,WNW,293,0.0,0.2,75,0.00,,,0.00,WUHU216HW,2013-07-14 09:01:00,
2013-07-14 02:06:00,56.9,49.0,29.91,WNW,293,0.0,0.2,75,0.00,,,0.00,WUHU216HW,2013-07-14 09:06:00,
2013-07-14 02:11:00,56.9,49.0,29.91,WNW,293,0.0,0.0,75,0.00,,,0.00,WUHU216HW,2013-07-14 09:11:00,
2013-07-14 02:16:00,56.9,49.3,29.91,WNW,293,0.0,0.0,76,0.00,,,0.00,WUHU216HW,2013-07-14 09:16:00,
2013-07-14 02:22:00,56.7,49.1,29.91,WNW,293,0.0,0.0,76,0.00,,,0.00,WUHU216HW,2013-07-14 09:22:00,
2013-07-14 02:27:00,56.5,49.0,29.91,WNW,293,0.0,0.0,76,0.00,,,0.00,WUHU216HW,2013-07-14 09:27:00,
2013-07-14 02:32:00,56.3,48.8,29.91,WNW,293,0.0,0.0,76,0.00,,,0.00,WUHU216HW,2013-07-14 09:32:00,
2013-07-14 02:37:00,56.2,49.0,29.91,WNW,293,0.0,0.2,77,0.00,,,0.00,WUHU216HW,2013-07-14 09:37:00,
2013-07-14 02:42:00,56.2,49.0,29.91,WNW,293,0.0,0.2,77,0.00,,,0.00,WUHU216HW,2013-07-14 09:42:00,
2013-07-14 02:47:00,56.2,49.0,29.91,WNW,293,0.0,0.0,77,0.00,,,0.00,WUHU216HW,2013-07-14 09:47:00,
2013-07-14 02:52:00,56.0,49.1,29.91,West,270,0.0,0.2,78,0.00,,,0.00,WUHU216HW,2013-07-14 09:52:00,
2013-07-14 02:57:00,55.8,49.0,29.91,West,270,0.0,0.2,78,0.00,,,0.00,WUHU216HW,2013-07-14 09:57:00,
2013-07-14 03:02:00,55.8,49.0,29.91,West,270,0.0,0.0,78,0.00,,,0.00,WUHU216HW,2013-07-14 10:02:00,
2013-07-14 03:07:00,55.6,48.8,29.91,West,270,0.0,0.4,78,0.00,,,0.00,WUHU216HW,2013-07-14 10:07:00,
2013-07-14 03:12:00,55.6,49.1,29.91,West,270,0.0,0.4,79,0.00,,,0.00,WUHU216HW,2013-07-14 10:12:00,
2013-07-14 03:17:00,55.4,49.0,29.91,West,270,0.0,0.2,79,0.00,,,0.00,WUHU216HW,2013-07-14 10:17:00,
2013-07-14 03:22:00,55.4,49.0,29.91,West,270,0.0,0.2,79,0.00,,,0.00,WUHU216HW,2013-07-14 10:22:00,
2013-07-14 03:27:00,55.3,48.5,29.91,West,270,0.0,0.2,78,0.00,,,0.00,WUHU216HW,2013-07-14 10:27:00,
2013-07-14 03:33:00,55.3,48.5,29.91,West,270,0.0,0.0,78,0.00,,,0.00,WUHU216HW,2013-07-14 10:33:00,
2013-07-14 03:38:00,55.1,48.3,29.91,West,270,0.0,0.0,78,0.00,,,0.00,WUHU216HW,2013-07-14 10:38:00,
2013-07-14 03:43:00,55.1,48.7,29.91,West,270,0.0,0.0,79,0.00,,,0.00,WUHU216HW,2013-07-14 10:43:00,
2013-07-14 03:48:00,54.9,48.5,29.91,West,270,0.0,0.0,79,0.00,,,0.00,WUHU216HW,2013-07-14 10:48:00,
2013-07-14 03:53:00,54.9,48.5,29.91,West,270,0.0,0.0,79,0.00,,,0.00,WUHU216HW,2013-07-14 10:53:00,
2013-07-14 03:58:00,54.7,48.3,29.91,West,270,0.0,0.0,79,0.00,,,0.00,WUHU216HW,2013-07-14 10:58:00,
2013-07-14 04:03:00,54.7,48.7,29.91,West,270,0.0,0.0,80,0.00,,,0.00,WUHU216HW,2013-07-14 11:03:00,
2013-07-14 04:08:00,54.5,48.5,29.91,West,270,0.0,0.0,80,0.00,,,0.00,WUHU216HW,2013-07-14 11:08:00,
2013-07-14 04:13:00,54.5,48.5,29.91,West,270,0.0,0.0,80,0.00,,,0.00,WUHU216HW,2013-07-14 11:13:00,
2013-07-14 04:18:00,54.4,48.3,29.91,West,270,0.0,0.0,80,0.00,,,0.00,WUHU216HW,2013-07-14 11:18:00,
2013-07-14 04:23:00,54.4,48.3,29.91,West,270,0.0,0.0,80,0.00,,,0.00,WUHU216HW,2013-07-14 11:23:00,
2013-07-14 04:28:00,54.4,48.7,29.91,West,270,0.0,0.0,81,0.00,,,0.00,WUHU216HW,2013-07-14 11:28:00,
2013-07-14 04:33:00,54.2,48.5,29.91,West,270,0.0,0.0,81,0.00,,,0.00,WUHU216HW,2013-07-14 11:33:00,
2013-07-14 04:38:00,54.2,48.5,29.91,West,270,0.0,0.0,81,0.00,,,0.00,WUHU216HW,2013-07-14 11:38:00,
2013-07-14 04:44:00,54.0,48.3,29.91,West,270,0.0,0.0,81,0.00,,,0.00,WUHU216HW,2013-07-14 11:44:00,
2013-07-14 04:49:00,53.8,48.2,29.91,West,270,0.0,0.0,81,0.00,,,0.00,WUHU216HW,2013-07-14 11:49:00,
2013-07-14 04:54:00,53.6,48.0,29.91,West,270,0.0,0.0,81,0.00,,,0.00,WUHU216HW,2013-07-14 11:54:00,
2013-07-14 04:59:00,53.6,48.0,29.91,West,270,0.0,0.0,81,0.00,,,0.00,WUHU216HW,2013-07-14 11:59:00,
2013-07-14 05:04:00,53.6,48.0,29.92,West,270,0.2,0.2,81,0.00,,,0.00,WUHU216HW,2013-07-14 12:04:00,
2013-07-14 05:09:00,53.5,47.8,29.92,West,270,0.0,0.2,81,0.00,,,0.00,WUHU216HW,2013-07-14 12:09:00,
2013-07-14 05:14:00,53.5,47.8,29.92,West,270,0.0,0.0,81,0.00,,,0.00,WUHU216HW,2013-07-14 12:14:00,
2013-07-14 05:19:00,53.3,48.0,29.92,West,270,0.0,0.0,82,0.00,,,0.00,WUHU216HW,2013-07-14 12:19:00,
2013-07-14 05:24:00,53.3,48.0,29.92,West,270,0.0,0.0,82,0.00,,,0.00,WUHU216HW,2013-07-14 12:24:00,
2013-07-14 05:29:00,53.3,48.0,29.92,WNW,293,0.0,0.2,82,0.00,,,0.00,WUHU216HW,2013-07-14 12:29:00,
2013-07-14 05:34:00,53.1,47.8,29.92,WNW,293,0.0,0.2,82,0.00,,,0.00,WUHU216HW,2013-07-14 12:34:00,
2013-07-14 05:39:00,53.1,47.8,29.92,WNW,293,0.0,0.0,82,0.00,,,0.00,WUHU216HW,2013-07-14 12:39:00,
2013-07-14 05:44:00,53.1,47.8,29.92,WNW,293,0.0,0.2,82,0.00,,,0.00,WUHU216HW,2013-07-14 12:44:00,
2013-07-14 05:49:00,52.9,47.6,29.92,WNW,293,0.0,0.2,82,0.00,,,0.00,WUHU216HW,2013-07-14 12:49:00,
2013-07-14 05:54:00,52.9,47.6,29.92,WNW,293,0.0,0.0,82,0.00,,,0.00,WUHU216HW,2013-07-14 12:54:00,
2013-07-14 05:59:00,52.9,47.6,29.93,WNW,293,0.0,0.0,82,0.00,,,0.00,WUHU216HW,2013-07-14 12:59:00,
2013-07-14 06:05:00,52.9,47.6,29.93,WNW,293,0.0,0.2,82,0.00,,,0.00,WUHU216HW,2013-07-14 13:05:00,
2013-07-14 06:10:00,53.1,48.1,29.93,West,270,0.0,0.2,83,0.00,,,0.00,WUHU216HW,2013-07-14 13:10:00,
2013-07-14 06:15:00,53.3,48.2,29.93,West,270,0.0,0.2,83,0.00,,,0.00,WUHU216HW,2013-07-14 13:15:00,
2013-07-14 06:20:00,53.5,48.4,29.93,West,270,0.0,0.0,83,0.00,,,0.00,WUHU216HW,2013-07-14 13:20:00,
2013-07-14 06:25:00,53.6,49.0,29.93,WNW,293,0.0,0.0,84,0.00,,,0.00,WUHU216HW,2013-07-14 13:25:00,
2013-07-14 06:30:00,53.6,49.0,29.93,WNW,293,0.0,0.0,84,0.00,,,0.00,WUHU216HW,2013-07-14 13:30:00,
2013-07-14 06:35:00,53.8,49.1,29.93,WNW,293,0.0,0.0,84,0.00,,,0.00,WUHU216HW,2013-07-14 13:35:00,
2013-07-14 06:40:00,54.0,49.2,29.93,WNW,293,0.0,0.0,84,0.00,,,0.00,WUHU216HW,2013-07-14 13:40:00,
2013-07-14 06:45:00,54.4,49.6,29.93,WNW,293,0.0,0.0,84,0.00,,,0.00,WUHU216HW,2013-07-14 13:45:00,
2013-07-14 06:50:00,54.4,49.6,29.94,WNW,293,0.0,0.0,84,0.00,,,0.00,WUHU216HW,2013-07-14 13:50:00,
2013-07-14 06:55:00,54.5,49.8,29.94,WNW,293,0.0,0.0,84,0.00,,,0.00,WUHU216HW,2013-07-14 13:55:00,
2013-07-14 07:00:00,54.7,50.0,29.94,WNW,293,0.0,0.2,84,0.00,,,0.00,WUHU216HW,2013-07-14 14:00:00,
2013-07-14 07:05:00,55.1,50.6,29.94,WNW,293,0.0,0.4,85,0.00,,,0.00,WUHU216HW,2013-07-14 14:05:00,
2013-07-14 07:10:00,55.3,50.8,29.94,WNW,293,0.4,0.7,85,0.00,,,0.00,WUHU216HW,2013-07-14 14:10:00,
2013-07-14 07:15:00,55.4,50.9,29.94,WNW,293,0.4,0.7,85,0.00,,,0.00,WUHU216HW,2013-07-14 14:15:00,
2013-07-14 07:21:00,55.6,51.1,29.94,WNW,293,0.0,0.4,85,0.00,,,0.00,WUHU216HW,2013-07-14 14:21:00,
2013-07-14 07:26:00,56.0,51.9,29.94,WNW,293,0.7,0.7,86,0.00,,,0.00,WUHU216HW,2013-07-14 14:26:00,
2013-07-14 07:31:00,56.2,52.0,29.94,West,270,0.4,0.7,86,0.00,,,0.00,WUHU216HW,2013-07-14 14:31:00,
2013-07-14 07:36:00,56.3,51.8,29.94,West,270,0.0,0.4,85,0.00,,,0.00,WUHU216HW,2013-07-14 14:36:00,
2013-07-14 07:41:00,56.7,52.2,29.94,West,270,0.4,0.4,85,0.00,,,0.00,WUHU216HW,2013-07-14 14:41:00,
2013-07-14 07:46:00,57.1,52.6,29.94,West,270,1.1,1.1,85,0.00,,,0.00,WUHU216HW,2013-07-14 14:46:00,
2013-07-14 07:51:00,57.2,52.4,29.94,WSW,248,1.1,1.8,84,0.00,,,0.00,WUHU216HW,2013-07-14 14:51:00,
2013-07-14 07:56:00,57.2,52.4,29.94,SW,225,0.2,1.8,84,0.00,,,0.00,WUHU216HW,2013-07-14 14:56:00,
2013-07-14 08:01:00,57.6,53.1,29.94,SW,225,0.0,1.3,85,0.00,,,0.00,WUHU216HW,2013-07-14 15:01:00,
2013-07-14 08:06:00,58.0,53.5,29.94,West,270,0.2,1.1,85,0.00,,,0.00,WUHU216HW,2013-07-14 15:06:00,
2013-07-14 08:11:00,58.3,53.5,29.95,WSW,248,0.4,1.1,84,0.00,,,0.00,WUHU216HW,2013-07-14 15:11:00,
2013-07-14 08:16:00,58.5,53.6,29.95,ESE,113,1.6,1.6,84,0.00,,,0.00,WUHU216HW,2013-07-14 15:16:00,
2013-07-14 08:21:00,59.0,53.9,29.95,WSW,248,0.0,1.6,83,0.00,,,0.00,WUHU216HW,2013-07-14 15:21:00,
2013-07-14 08:27:00,59.0,53.9,29.95,West,270,1.1,1.8,83,0.00,,,0.00,WUHU216HW,2013-07-14 15:27:00,
2013-07-14 08:32:00,59.0,53.9,29.95,SSW,203,0.4,1.8,83,0.00,,,0.00,WUHU216HW,2013-07-14 15:32:00,
2013-07-14 08:37:00,59.4,54.3,29.95,ESE,113,0.4,1.8,83,0.00,,,0.00,WUHU216HW,2013-07-14 15:37:00,
2013-07-14 08:42:00,59.9,54.5,29.95,SW,225,1.6,1.6,82,0.00,,,0.00,WUHU216HW,2013-07-14 15:42:00,
2013-07-14 08:47:00,60.3,54.6,29.95,West,270,0.4,1.6,81,0.00,,,0.00,WUHU216HW,2013-07-14 15:47:00,
2013-07-14 08:52:00,60.5,54.4,29.96,West,270,0.0,2.2,80,0.00,,,0.00,WUHU216HW,2013-07-14 15:52:00,
2013-07-14 08:57:00,60.5,54.4,29.96,SSW,203,1.6,2.2,80,0.00,,,0.00,WUHU216HW,2013-07-14 15:57:00,
2013-07-14 09:02:00,60.8,54.7,29.95,WSW,248,0.7,2.2,80,0.00,,,0.00,WUHU216HW,2013-07-14 16:02:00,
2013-07-14 09:07:00,60.8,54.4,29.95,SSE,158,1.6,2.2,79,0.00,,,0.00,WUHU216HW,2013-07-14 16:07:00,
2013-07-14 09:12:00,61.4,54.8,29.96,SW,225,1.8,1.8,79,0.00,,,0.00,WUHU216HW,2013-07-14 16:12:00,
2013-07-14 09:17:00,61.9,55.4,29.96,WSW,248,0.0,1.8,79,0.00,,,0.00,WUHU216HW,2013-07-14 16:17:00,
2013-07-14 09:22:00,62.5,55.4,29.96,SSE,158,1.8,1.8,78,0.00,,,0.00,WUHU216HW,2013-07-14 16:22:00,
2013-07-14 09:27:00,63.0,55.3,29.96,NW,315,1.1,1.8,76,0.00,,,0.00,WUHU216HW,2013-07-14 16:27:00,
2013-07-14 09:32:00,62.8,55.1,29.96,SW,225,2.0,2.0,76,0.00,,,0.00,WUHU216HW,2013-07-14 16:32:00,
2013-07-14 09:37:00,62.8,55.1,29.96,WSW,248,0.4,3.4,76,0.00,,,0.00,WUHU216HW,2013-07-14 16:37:00,
2013-07-14 09:43:00,63.4,55.6,29.96,West,270,0.2,3.4,76,0.00,,,0.00,WUHU216HW,2013-07-14 16:43:00,
2013-07-14 09:48:00,63.9,55.8,29.95,SSW,203,1.1,2.7,75,0.00,,,0.00,WUHU216HW,2013-07-14 16:48:00,
2013-07-14 09:53:00,64.4,56.3,29.95,NW,315,0.9,2.7,75,0.00,,,0.00,WUHU216HW,2013-07-14 16:53:00,
2013-07-14 09:58:00,64.8,56.4,29.95,WSW,248,1.6,2.5,74,0.00,,,0.00,WUHU216HW,2013-07-14 16:58:00,
2013-07-14 10:03:00,65.2,56.3,29.95,WNW,293,0.4,2.0,73,0.00,,,0.00,WUHU216HW,2013-07-14 17:03:00,
2013-07-14 10:08:00,65.2,55.9,29.95,South,180,3.4,3.4,72,0.00,,,0.00,WUHU216HW,2013-07-14 17:08:00,
2013-07-14 10:13:00,65.5,56.3,29.95,WSW,248,1.3,3.4,72,0.00,,,0.00,WUHU216HW,2013-07-14 17:13:00,
2013-07-14 10:18:00,65.9,56.6,29.95,WSW,248,1.1,2.5,72,0.00,,,0.00,WUHU216HW,2013-07-14 17:18:00,
2013-07-14 10:23:00,66.6,57.2,29.95,South,180,2.5,2.5,72,0.00,,,0.00,WUHU216HW,2013-07-14 17:23:00,
2013-07-14 10:28:00,67.0,56.9,29.94,WSW,248,1.1,2.5,70,0.00,,,0.00,WUHU216HW,2013-07-14 17:28:00,
2013-07-14 10:33:00,67.3,57.2,29.94,SW,225,1.3,2.2,70,0.00,,,0.00,WUHU216HW,2013-07-14 17:33:00,
2013-07-14 10:38:00,67.7,56.7,29.94,SW,225,1.8,1.8,68,0.00,,,0.00,WUHU216HW,2013-07-14 17:38:00,
2013-07-14 10:43:00,67.9,56.5,29.95,WNW,293,2.5,2.9,67,0.00,,,0.00,WUHU216HW,2013-07-14 17:43:00,
2013-07-14 10:49:00,68.0,57.1,29.94,WSW,248,1.6,2.9,68,0.00,,,0.00,WUHU216HW,2013-07-14 17:49:00,
2013-07-14 10:54:00,68.4,57.4,29.95,West,270,1.1,2.7,68,0.00,,,0.00,WUHU216HW,2013-07-14 17:54:00,
2013-07-14 10:59:00,68.8,56.5,29.95,NW,315,0.7,2.7,65,0.00,,,0.00,WUHU216HW,2013-07-14 17:59:00,
2013-07-14 11:04:00,68.6,56.4,29.94,West,270,1.6,2.7,65,0.00,,,0.00,WUHU216HW,2013-07-14 18:04:00,
2013-07-14 11:09:00,68.8,56.5,29.95,SW,225,4.0,4.0,65,0.00,,,0.00,WUHU216HW,2013-07-14 18:09:00,
2013-07-14 11:14:00,68.8,56.1,29.95,West,270,1.8,4.0,64,0.00,,,0.00,WUHU216HW,2013-07-14 18:14:00,
2013-07-14 11:19:00,69.1,56.8,29.95,NW,315,2.0,3.4,65,0.00,,,0.00,WUHU216HW,2013-07-14 18:19:00,
2013-07-14 11:24:00,69.1,56.4,29.95,WSW,248,2.5,2.5,64,0.00,,,0.00,WUHU216HW,2013-07-14 18:24:00,
2013-07-14 11:29:00,69.1,56.8,29.95,NNW,338,1.8,2.5,65,0.00,,,0.00,WUHU216HW,2013-07-14 18:29:00,
2013-07-14 11:34:00,69.3,56.2,29.95,West,270,2.2,3.4,63,0.00,,,0.00,WUHU216HW,2013-07-14 18:34:00,
2013-07-14 11:40:00,69.5,56.4,29.94,West,270,0.9,3.4,63,0.00,,,0.00,WUHU216HW,2013-07-14 18:40:00,
2013-07-14 11:45:00,69.5,56.8,29.94,NNW,338,1.8,2.0,64,0.00,,,0.00,WUHU216HW,2013-07-14 18:45:00,
2013-07-14 11:50:00,69.3,55.7,29.94,NW,315,1.8,3.4,62,0.00,,,0.00,WUHU216HW,2013-07-14 18:50:00,
2013-07-14 11:55:00,69.5,56.8,29.94,WSW,248,1.8,3.4,64,0.00,,,0.00,WUHU216HW,2013-07-14 18:55:00,
2013-07-14 12:00:00,70.2,56.6,29.94,West,270,1.8,2.0,62,0.00,,,0.00,WUHU216HW,2013-07-14 19:00:00,
2013-07-14 12:05:00,70.6,56.1,29.94,NW,315,0.7,1.8,60,0.00,,,0.00,WUHU216HW,2013-07-14 19:05:00,
2013-07-14 12:10:00,70.7,56.3,29.94,WNW,293,1.8,2.2,60,0.00,,,0.00,WUHU216HW,2013-07-14 19:10:00,
2013-07-14 12:15:00,71.6,57.1,29.94,NW,315,1.8,2.2,60,0.00,,,0.00,WUHU216HW,2013-07-14 19:15:00,
2013-07-14 12:20:00,72.4,57.7,29.94,SW,225,4.7,4.7,60,0.00,,,0.00,WUHU216HW,2013-07-14 19:20:00,
2013-07-14 12:25:00,72.7,56.5,29.94,WSW,248,1.8,4.7,57,0.00,,,0.00,WUHU216HW,2013-07-14 19:25:00,
2013-07-14 12:30:00,73.4,57.2,29.94,SW,225,2.0,4.0,57,0.00,,,0.00,WUHU216HW,2013-07-14 19:30:00,
2013-07-14 12:35:00,73.4,56.7,29.94,NW,315,2.5,2.5,56,0.00,,,0.00,WUHU216HW,2013-07-14 19:35:00,
2013-07-14 12:40:00,73.1,56.9,29.94,WNW,293,2.0,2.5,57,0.00,,,0.00,WUHU216HW,2013-07-14 19:40:00,
2013-07-14 12:46:00,74.0,57.7,29.94,West,270,1.8,3.4,57,0.00,,,0.00,WUHU216HW,2013-07-14 19:46:00,
2013-07-14 12:51:00,74.3,57.6,29.93,SSW,203,0.7,3.4,56,0.00,,,0.00,WUHU216HW,2013-07-14 19:51:00,
2013-07-14 12:56:00,74.7,57.4,29.93,WSW,248,2.2,2.5,55,0.00,,,0.00,WUHU216HW,2013-07-14 19:56:00,
2013-07-14 13:01:00,74.9,57.6,29.93,WSW,248,0.2,2.2,55,0.00,,,0.00,WUHU216HW,2013-07-14 20:01:00,
2013-07-14 13:06:00,75.1,58.3,29.93,NW,315,1.6,3.1,56,0.00,,,0.00,WUHU216HW,2013-07-14 20:06:00,
2013-07-14 13:11:00,75.1,57.2,29.93,NW,315,2.7,3.1,54,0.00,,,0.00,WUHU216HW,2013-07-14 20:11:00,
2013-07-14 13:16:00,75.4,57.6,29.93,NW,315,1.3,2.7,54,0.00,,,0.00,WUHU216HW,2013-07-14 20:16:00,
2013-07-14 13:21:00,75.4,58.2,29.92,West,270,2.2,2.7,55,0.00,,,0.00,WUHU216HW,2013-07-14 20:21:00,
2013-07-14 13:26:00,76.3,59.0,29.92,West,270,0.9,3.4,55,0.00,,,0.00,WUHU216HW,2013-07-14 20:26:00,
2013-07-14 13:31:00,77.0,58.6,29.92,WSW,248,2.2,4.0,53,0.00,,,0.00,WUHU216HW,2013-07-14 20:31:00,
2013-07-14 13:36:00,76.9,58.4,29.92,WNW,293,2.2,4.0,53,0.00,,,0.00,WUHU216HW,2013-07-14 20:36:00,
2013-07-14 13:41:00,77.0,58.1,29.92,West,270,3.4,3.4,52,0.00,,,0.00,WUHU216HW,2013-07-14 20:41:00,
2013-07-14 13:46:00,77.2,58.2,29.92,SW,225,2.2,3.4,52,0.00,,,0.00,WUHU216HW,2013-07-14 20:46:00,
2013-07-14 13:51:00,77.8,58.2,29.91,WNW,293,0.4,3.4,51,0.00,,,0.00,WUHU216HW,2013-07-14 20:51:00,
2013-07-14 13:56:00,77.8,58.2,29.91,WSW,248,2.2,3.4,51,0.00,,,0.00,WUHU216HW,2013-07-14 20:56:00,
2013-07-14 14:02:00,77.8,58.2,29.91,West,270,1.8,3.4,51,0.00,,,0.00,WUHU216HW,2013-07-14 21:02:00,
2013-07-14 14:07:00,78.1,58.1,29.91,NW,315,1.6,3.4,50,0.00,,,0.00,WUHU216HW,2013-07-14 21:07:00,
2013-07-14 14:12:00,77.8,57.7,29.91,WNW,293,2.0,2.9,50,0.00,,,0.00,WUHU216HW,2013-07-14 21:12:00,
2013-07-14 14:17:00,77.9,57.9,29.91,West,270,3.1,3.1,50,0.00,,,0.00,WUHU216HW,2013-07-14 21:17:00,
2013-07-14 14:22:00,77.6,58.1,29.91,NNW,338,1.1,3.1,51,0.00,,,0.00,WUHU216HW,2013-07-14 21:22:00,
2013-07-14 14:27:00,77.4,57.9,29.91,West,270,1.6,2.5,51,0.00,,,0.00,WUHU216HW,2013-07-14 21:27:00,
2013-07-14 14:32:00,77.9,58.9,29.91,NW,315,2.0,2.5,52,0.00,,,0.00,WUHU216HW,2013-07-14 21:32:00,
2013-07-14 14:37:00,78.3,59.2,29.90,WSW,248,1.1,2.9,52,0.00,,,0.00,WUHU216HW,2013-07-14 21:37:00,
2013-07-14 14:42:00,78.7,58.5,29.90,West,270,3.8,4.0,50,0.00,,,0.00,WUHU216HW,2013-07-14 21:42:00,
2013-07-14 14:47:00,78.8,58.7,29.90,West,270,1.1,4.0,50,0.00,,,0.00,WUHU216HW,2013-07-14 21:47:00,
2013-07-14 14:52:00,78.8,58.7,29.90,SW,225,1.1,3.4,50,0.00,,,0.00,WUHU216HW,2013-07-14 21:52:00,
2013-07-14 14:57:00,78.8,59.2,29.90,NW,315,1.6,3.1,51,0.00,,,0.00,WUHU216HW,2013-07-14 21:57:00,
2013-07-14 15:02:00,79.6,58.7,29.90,WSW,248,1.8,3.8,49,0.00,,,0.00,WUHU216HW,2013-07-14 22:02:00,
2013-07-14 15:08:00,79.6,58.7,29.90,WNW,293,1.8,3.8,49,0.00,,,0.00,WUHU216HW,2013-07-14 22:08:00,
2013-07-14 15:13:00,79.0,58.9,29.90,West,270,1.8,2.9,50,0.00,,,0.00,WUHU216HW,2013-07-14 22:13:00,
2013-07-14 15:18:00,79.0,58.2,29.89,WSW,248,3.4,3.4,49,0.00,,,0.00,WUHU216HW,2013-07-14 22:18:00,
2013-07-14 15:23:00,78.1,58.1,29.89,SSW,203,2.2,3.6,50,0.00,,,0.00,WUHU216HW,2013-07-14 22:23:00,
2013-07-14 15:28:00,78.5,58.3,29.89,North,0,0.7,3.6,50,0.00,,,0.00,WUHU216HW,2013-07-14 22:28:00,
2013-07-14 15:33:00,77.4,57.9,29.89,NNW,338,0.7,3.8,51,0.00,,,0.00,WUHU216HW,2013-07-14 22:33:00,
2013-07-14 15:38:00,76.5,57.1,29.89,North,0,1.6,3.8,51,0.00,,,0.00,WUHU216HW,2013-07-14 22:38:00,
2013-07-14 15:43:00,76.5,57.1,29.89,North,0,0.7,2.2,51,0.00,,,0.00,WUHU216HW,2013-07-14 22:43:00,
2013-07-14 15:48:00,76.3,57.4,29.89,NNW,338,1.1,2.9,52,0.00,,,0.00,WUHU216HW,2013-07-14 22:48:00,
2013-07-14 15:53:00,76.7,56.7,29.89,West,270,0.7,2.9,50,0.00,,,0.00,WUHU216HW,2013-07-14 22:53:00,
2013-07-14 15:58:00,76.7,56.7,29.88,NW,315,1.6,2.2,50,0.00,,,0.00,WUHU216HW,2013-07-14 22:58:00,
2013-07-14 16:03:00,76.3,56.4,29.88,West,270,2.7,2.7,50,0.00,,,0.00,WUHU216HW,2013-07-14 23:03:00,
2013-07-14 16:08:00,77.6,57.0,29.88,West,270,0.9,2.7,49,0.00,,,0.00,WUHU216HW,2013-07-14 23:08:00,
2013-07-14 16:14:00,77.9,56.6,29.88,WSW,248,1.8,2.5,48,0.00,,,0.00,WUHU216HW,2013-07-14 23:14:00,
2013-07-14 16:19:00,77.8,57.1,29.88,SSW,203,2.5,2.5,49,0.00,,,0.00,WUHU216HW,2013-07-14 23:19:00,
2013-07-14 16:24:00,78.3,57.6,29.88,NW,315,1.6,2.5,49,0.00,,,0.00,WUHU216HW,2013-07-14 23:24:00,
2013-07-14 16:29:00,79.9,57.3,29.87,NW,315,0.2,3.4,46,0.00,,,0.00,WUHU216HW,2013-07-14 23:29:00,
2013-07-14 16:34:00,80.8,58.1,29.87,WSW,248,2.2,3.4,46,0.00,,,0.00,WUHU216HW,2013-07-14 23:34:00,
2013-07-14 16:39:00,82.6,57.2,29.87,West,270,1.6,2.5,42,0.00,,,0.00,WUHU216HW,2013-07-14 23:39:00,
2013-07-14 16:44:00,83.9,57.1,29.87,WNW,293,1.8,2.5,40,0.00,,,0.00,WUHU216HW,2013-07-14 23:44:00,
2013-07-14 16:49:00,84.6,57.0,29.87,West,270,1.1,2.9,39,0.00,,,0.00,WUHU216HW,2013-07-14 23:49:00,
2013-07-14 16:54:00,85.1,57.4,29.87,West,270,1.1,3.8,39,0.00,,,0.00,WUHU216HW,2013-07-14 23:54:00,
2013-07-14 16:59:00,83.0,55.5,29.86,North,0,1.3,3.8,39,0.00,,,0.00,WUHU216HW,2013-07-14 23:59:00,
2013-07-14 17:04:00,81.7,55.8,29.86,West,270,1.8,4.0,41,0.00,,,0.00,WUHU216HW,2013-07-15 00:04:00,
2013-07-14 17:09:00,82.4,56.4,29.86,NW,315,1.6,4.0,41,0.00,,,0.00,WUHU216HW,2013-07-15 00:09:00,
2013-07-14 17:14:00,81.9,55.9,29.86,NNW,338,1.6,2.5,41,0.00,,,0.00,WUHU216HW,2013-07-15 00:14:00,
2013-07-14 17:19:00,83.3,57.3,29.86,NW,315,0.7,3.8,41,0.00,,,0.00,WUHU216HW,2013-07-15 00:19:00,
2013-07-14 17:25:00,86.0,56.7,29.86,NNW,338,1.1,3.8,37,0.00,,,0.00,WUHU216HW,2013-07-15 00:25:00,
2013-07-14 17:30:00,84.1,56.4,29.86,West,270,1.1,2.5,39,0.00,,,0.00,WUHU216HW,2013-07-15 00:30:00,
2013-07-14 17:35:00,85.0,55.7,29.86,NNW,338,1.1,2.5,37,0.00,,,0.00,WUHU216HW,2013-07-15 00:35:00,
2013-07-14 17:40:00,83.2,55.6,29.86,NNW,338,1.1,2.5,39,0.00,,,0.00,WUHU216HW,2013-07-15 00:40:00,
2013-07-14 17:45:00,81.7,55.8,29.86,NNW,338,0.4,2.2,41,0.00,,,0.00,WUHU216HW,2013-07-15 00:45:00,
2013-07-14 17:50:00,80.6,56.6,29.86,North,0,0.9,2.0,44,0.00,,,0.00,WUHU216HW,2013-07-15 00:50:00,
2013-07-14 17:55:00,83.0,56.3,29.86,NW,315,1.6,1.6,40,0.00,,,0.00,WUHU216HW,2013-07-15 00:55:00,
2013-07-14 18:00:00,84.6,57.0,29.85,West,270,1.1,2.5,39,0.00,,,0.00,WUHU216HW,2013-07-15 01:00:00,
2013-07-14 18:05:00,82.1,56.1,29.85,NW,315,1.1,2.5,41,0.00,,,0.00,WUHU216HW,2013-07-15 01:05:00,
2013-07-14 18:10:00,82.4,55.8,29.85,NNW,338,0.9,1.6,40,0.00,,,0.00,WUHU216HW,2013-07-15 01:10:00,
2013-07-14 18:15:00,82.4,57.1,29.85,West,270,0.9,2.5,42,0.00,,,0.00,WUHU216HW,2013-07-15 01:15:00,
2013-07-14 18:20:00,81.7,55.8,29.85,NW,315,1.1,2.5,41,0.00,,,0.00,WUHU216HW,2013-07-15 01:20:00,
2013-07-14 18:26:00,80.3,56.4,29.85,West,270,1.1,1.8,44,0.00,,,0.00,WUHU216HW,2013-07-15 01:26:00,
2013-07-14 18:31:00,80.3,56.4,29.85,SSW,203,0.7,1.8,44,0.00,,,0.00,WUHU216HW,2013-07-15 01:31:00,
2013-07-14 18:36:00,79.6,55.6,29.85,NNW,338,0.4,1.8,44,0.00,,,0.00,WUHU216HW,2013-07-15 01:36:00,
2013-07-14 18:41:00,77.4,54.9,29.85,SSW,203,0.7,2.5,46,0.00,,,0.00,WUHU216HW,2013-07-15 01:41:00,
2013-07-14 18:46:00,76.9,55.1,29.85,WNW,293,1.3,3.1,47,0.00,,,0.00,WUHU216HW,2013-07-15 01:46:00,
2013-07-14 18:51:00,76.0,55.4,29.85,NW,315,1.3,3.1,49,0.00,,,0.00,WUHU216HW,2013-07-15 01:51:00,
2013-07-14 18:56:00,75.2,54.8,29.85,NNW,338,0.2,1.6,49,0.00,,,0.00,WUHU216HW,2013-07-15 01:56:00,
2013-07-14 19:01:00,74.2,55.4,29.85,NNW,338,1.6,1.6,52,0.00,,,0.00,WUHU216HW,2013-07-15 02:01:00,
2013-07-14 19:06:00,73.6,54.8,29.85,NW,315,1.8,1.8,52,0.00,,,0.00,WUHU216HW,2013-07-15 02:06:00,
2013-07-14 19:11:00,72.9,54.2,29.86,WNW,293,1.3,1.8,52,0.00,,,0.00,WUHU216HW,2013-07-15 02:11:00,
2013-07-14 19:16:00,72.7,54.6,29.85,NNW,338,1.1,2.2,53,0.00,,,0.00,WUHU216HW,2013-07-15 02:16:00,
2013-07-14 19:21:00,72.0,54.4,29.85,NW,315,0.4,2.2,54,0.00,,,0.00,WUHU216HW,2013-07-15 02:21:00,
2013-07-14 19:26:00,72.4,54.2,29.86,West,270,1.3,2.5,53,0.00,,,0.00,WUHU216HW,2013-07-15 02:26:00,
2013-07-14 19:31:00,72.7,54.6,29.86,NNW,338,0.4,2.5,53,0.00,,,0.00,WUHU216HW,2013-07-15 02:31:00,
2013-07-14 19:32:00,72.7,54.6,29.86,NNW,338,0.4,2.5,53,0.00,,,0.00,WUHU216HW,2013-07-15 02:32:00,
2013-07-14 19:37:00,72.0,54.4,29.86,NW,315,0.7,1.8,54,0.00,,,0.00,WUHU216HW,2013-07-15 02:37:00,
2013-07-14 19:42:00,71.1,54.1,29.86,NNW,338,0.2,1.1,55,0.00,,,0.00,WUHU216HW,2013-07-15 02:42:00,
2013-07-14 19:47:00,69.8,53.9,29.86,NNW,338,0.4,1.1,57,0.00,,,0.00,WUHU216HW,2013-07-15 02:47:00,
2013-07-14 19:52:00,69.5,53.6,29.86,NW,315,0.4,1.1,57,0.00,,,0.00,WUHU216HW,2013-07-15 02:52:00,
2013-07-14 19:57:00,68.9,54.0,29.86,NNW,338,0.7,1.1,59,0.00,,,0.00,WUHU216HW,2013-07-15 02:57:00,
2013-07-14 20:02:00,68.2,54.3,29.86,NNW,338,0.9,1.1,61,0.00,,,0.00,WUHU216HW,2013-07-15 03:02:00,
2013-07-14 20:07:00,68.2,54.3,29.86,NW,315,1.1,2.2,61,0.00,,,0.00,WUHU216HW,2013-07-15 03:07:00,
2013-07-14 20:12:00,67.5,54.0,29.86,NNW,338,0.4,2.2,62,0.00,,,0.00,WUHU216HW,2013-07-15 03:12:00,
2013-07-14 20:17:00,66.8,53.7,29.86,NNW,338,0.4,1.3,63,0.00,,,0.00,WUHU216HW,2013-07-15 03:17:00,
2013-07-14 20:22:00,66.2,53.6,29.86,WNW,293,0.7,1.3,64,0.00,,,0.00,WUHU216HW,2013-07-15 03:22:00,
2013-07-14 20:27:00,65.9,53.7,29.86,NW,315,0.4,1.3,65,0.00,,,0.00,WUHU216HW,2013-07-15 03:27:00,
2013-07-14 20:33:00,65.3,53.6,29.86,NW,315,0.2,1.6,66,0.00,,,0.00,WUHU216HW,2013-07-15 03:33:00,
2013-07-14 20:38:00,65.0,53.7,29.87,NNW,338,1.1,1.6,67,0.00,,,0.00,WUHU216HW,2013-07-15 03:38:00,
2013-07-14 20:43:00,64.6,53.8,29.86,NNW,338,1.1,1.1,68,0.00,,,0.00,WUHU216HW,2013-07-15 03:43:00,
2013-07-14 20:48:00,64.3,53.9,29.87,NW,315,1.1,1.1,69,0.00,,,0.00,WUHU216HW,2013-07-15 03:48:00,
2013-07-14 20:53:00,64.1,53.7,29.87,NW,315,0.2,1.1,69,0.00,,,0.00,WUHU216HW,2013-07-15 03:53:00,
2013-07-14 20:58:00,63.5,53.6,29.87,NW,315,0.4,1.1,70,0.00,,,0.00,WUHU216HW,2013-07-15 03:58:00,
2013-07-14 21:01:00,63.4,53.5,29.87,NW,315,0.4,1.1,70,0.00,,,0.00,WUHU216HW,2013-07-15 04:01:00,
2013-07-14 21:03:00,63.2,52.8,29.87,WNW,293,0.4,1.1,69,0.00,,,0.00,WUHU216HW,2013-07-15 04:03:00,
2013-07-14 21:08:00,63.2,52.8,29.88,West,270,0.0,0.9,69,0.00,,,0.00,WUHU216HW,2013-07-15 04:08:00,
2013-07-14 21:13:00,62.8,52.9,29.88,WNW,293,0.0,0.9,70,0.00,,,0.00,WUHU216HW,2013-07-15 04:13:00,
2013-07-14 21:18:00,62.5,52.6,29.87,WNW,293,0.7,0.9,70,0.00,,,0.00,WUHU216HW,2013-07-15 04:18:00,
2013-07-14 21:24:00,62.3,53.1,29.88,West,270,0.9,0.9,72,0.00,,,0.00,WUHU216HW,2013-07-15 04:24:00,
2013-07-14 21:29:00,61.9,52.1,29.88,WNW,293,0.4,1.1,70,0.00,,,0.00,WUHU216HW,2013-07-15 04:29:00,
2013-07-14 21:34:00,61.6,52.8,29.88,NNW,338,0.7,1.1,73,0.00,,,0.00,WUHU216HW,2013-07-15 04:34:00,
2013-07-14 21:39:00,61.0,52.4,29.88,NW,315,1.1,1.1,73,0.00,,,0.00,WUHU216HW,2013-07-15 04:39:00,
2013-07-14 21:44:00,60.8,52.2,29.89,West,270,1.1,1.1,73,0.00,,,0.00,WUHU216HW,2013-07-15 04:44:00,
2013-07-14 21:49:00,60.8,52.2,29.89,West,270,0.4,1.8,73,0.00,,,0.00,WUHU216HW,2013-07-15 04:49:00,
2013-07-14 21:54:00,60.7,52.0,29.89,WNW,293,0.0,1.8,73,0.00,,,0.00,WUHU216HW,2013-07-15 04:54:00,
2013-07-14 21:59:00,60.3,51.7,29.89,WNW,293,0.0,1.1,73,0.00,,,0.00,WUHU216HW,2013-07-15 04:59:00,
2013-07-14 22:04:00,60.1,51.5,29.89,WNW,293,0.4,1.1,73,0.00,,,0.00,WUHU216HW,2013-07-15 05:04:00,
2013-07-14 22:09:00,59.9,51.7,29.89,West,270,0.4,0.4,74,0.00,,,0.00,WUHU216HW,2013-07-15 05:09:00,
2013-07-14 22:14:00,59.6,51.7,29.89,West,270,0.7,0.9,75,0.00,,,0.00,WUHU216HW,2013-07-15 05:14:00,
2013-07-14 22:19:00,59.4,51.8,29.89,West,270,1.1,1.8,76,0.00,,,0.00,WUHU216HW,2013-07-15 05:19:00,
2013-07-14 22:24:00,59.4,51.5,29.89,WNW,293,0.0,1.8,75,0.00,,,0.00,WUHU216HW,2013-07-15 05:24:00,
2013-07-14 22:29:00,59.2,51.7,29.89,WSW,248,0.2,1.1,76,0.00,,,0.00,WUHU216HW,2013-07-15 05:29:00,
2013-07-14 22:35:00,59.0,51.5,29.89,West,270,0.0,1.1,76,0.00,,,0.00,WUHU216HW,2013-07-15 05:35:00,
2013-07-14 22:40:00,58.7,52.2,29.89,NNW,338,0.0,0.7,79,0.00,,,0.00,WUHU216HW,2013-07-15 05:40:00,
2013-07-14 22:45:00,58.3,51.8,29.89,NNW,338,0.2,0.7,79,0.00,,,0.00,WUHU216HW,2013-07-15 05:45:00,
2013-07-14 22:50:00,58.1,50.9,29.89,WNW,293,0.2,0.4,77,0.00,,,0.00,WUHU216HW,2013-07-15 05:50:00,
2013-07-14 22:55:00,58.0,50.8,29.89,West,270,0.0,0.4,77,0.00,,,0.00,WUHU216HW,2013-07-15 05:55:00,
2013-07-14 23:00:00,57.8,50.6,29.89,West,270,0.0,0.0,77,0.00,,,0.00,WUHU216HW,2013-07-15 06:00:00,
2013-07-14 23:05:00,57.6,50.4,29.89,West,270,0.0,0.0,77,0.00,,,0.00,WUHU216HW,2013-07-15 06:05:00,
2013-07-14 23:10:00,57.6,50.8,29.89,West,270,0.0,0.2,78,0.00,,,0.00,WUHU216HW,2013-07-15 06:10:00,
2013-07-14 23:15:00,57.2,50.8,29.89,West,270,0.2,0.4,79,0.00,,,0.00,WUHU216HW,2013-07-15 06:15:00,
2013-07-14 23:16:00,57.2,50.8,29.88,West,270,0.0,0.4,79,0.00,,,0.00,WUHU216HW,2013-07-15 06:16:00,
2013-07-14 23:21:00,57.2,50.8,29.89,WSW,248,0.0,0.4,79,0.00,,,0.00,WUHU216HW,2013-07-15 06:21:00,
2013-07-14 23:26:00,57.1,50.2,29.89,SW,225,0.4,0.4,78,0.00,,,0.00,WUHU216HW,2013-07-15 06:26:00,
2013-07-14 23:31:00,56.9,50.4,29.89,SW,225,0.4,0.4,79,0.00,,,0.00,WUHU216HW,2013-07-15 06:31:00,
2013-07-14 23:36:00,56.7,50.2,29.89,WSW,248,0.4,0.4,79,0.00,,,0.00,WUHU216HW,2013-07-15 06:36:00,
2013-07-14 23:41:00,56.5,50.4,29.89,WSW,248,0.2,0.9,80,0.00,,,0.00,WUHU216HW,2013-07-15 06:41:00,
2013-07-14 23:46:00,56.3,50.6,29.89,WSW,248,0.2,0.9,81,0.00,,,0.00,WUHU216HW,2013-07-15 06:46:00,
2013-07-14 23:51:00,56.2,50.0,29.89,WNW,293,0.2,0.4,80,0.00,,,0.00,WUHU216HW,2013-07-15 06:51:00,
2013-07-14 23:56:00,56.2,50.0,29.88,WNW,293,0.0,0.4,80,0.00,,,0.00,WUHU216HW,2013-07-15 06:56:00,